createdAt,value
2023-02-08T00:01:14.675Z,93.70
2023-02-08T00:03:46.133Z,93.70
2023-02-08T00:06:17.812Z,93.90
2023-02-08T00:08:49.034Z,93.70
2023-02-08T00:11:21.334Z,93.70
2023-02-08T00:13:52.496Z,93.60
2023-02-08T00:16:43.259Z,93.70
2023-02-08T00:19:14.193Z,93.60
2023-02-08T00:22:04.680Z,93.60
2023-02-08T00:27:22.683Z,93.80
2023-02-08T00:29:53.404Z,93.70
2023-02-08T00:32:24.582Z,93.70
2023-02-08T00:34:55.951Z,93.70
2023-02-08T00:37:26.552Z,93.60
2023-02-08T00:39:57.401Z,93.60
2023-02-08T00:42:29.153Z,93.60
2023-02-08T00:45:20.084Z,93.60
2023-02-08T00:47:51.227Z,93.60
2023-02-08T00:50:22.423Z,93.60
2023-02-08T00:52:53.607Z,93.50
2023-02-08T00:55:24.754Z,93.50
2023-02-08T00:57:55.662Z,93.50
2023-02-08T01:00:26.683Z,93.60
2023-02-08T01:02:58.608Z,93.60
2023-02-08T01:05:34.786Z,93.60
2023-02-08T01:08:26.838Z,93.60
2023-02-08T01:11:25.035Z,93.50
2023-02-08T01:14:01.808Z,93.60
2023-02-08T01:16:36.543Z,93.50
2023-02-08T01:19:07.756Z,93.70
2023-02-08T01:21:44.561Z,93.90
2023-02-08T01:24:15.626Z,93.50
2023-02-08T01:27:06.530Z,93.50
2023-02-08T01:29:38.920Z,93.80
2023-02-08T01:32:10.486Z,93.70
2023-02-08T01:34:45.054Z,93.70
2023-02-08T01:37:16.237Z,96.00
2023-02-08T01:39:47.428Z,95.70
2023-02-08T01:42:59.500Z,95.20
2023-02-08T01:45:33.639Z,95.30
2023-02-08T01:48:12.665Z,96.00
2023-02-08T01:50:52.477Z,95.20
2023-02-08T01:53:25.689Z,94.70
2023-02-08T01:56:08.511Z,94.80
2023-02-08T01:58:45.942Z,94.50
2023-02-08T02:01:18.058Z,94.40
2023-02-08T02:03:48.991Z,94.70
2023-02-08T02:06:24.886Z,94.20
2023-02-08T02:09:24.270Z,94.20
2023-02-08T02:11:56.819Z,94.20
2023-02-08T02:14:29.762Z,94.20
2023-02-08T02:17:02.972Z,94.60
2023-02-08T02:19:50.926Z,94.30
2023-02-08T02:22:39.432Z,94.20
2023-02-08T02:25:41.747Z,94.30
2023-02-08T02:28:54.898Z,94.30
2023-02-08T02:31:36.609Z,94.40
2023-02-08T02:34:29.777Z,94.30
2023-02-08T02:37:19.081Z,94.20
2023-02-08T02:40:23.287Z,94.20
2023-02-08T02:43:36.887Z,94.20
2023-02-08T02:46:40.130Z,94.10
2023-02-08T02:49:28.785Z,94.00
2023-02-08T02:52:13.627Z,94.20
2023-02-08T02:54:51.570Z,94.90
2023-02-08T02:57:30.847Z,94.20
2023-02-08T03:00:03.542Z,94.90
2023-02-08T03:02:57.098Z,95.00
2023-02-08T03:05:30.275Z,94.80
2023-02-08T03:08:23.451Z,94.90
2023-02-08T03:10:54.073Z,94.80
2023-02-08T03:13:30.617Z,95.00
2023-02-08T03:16:29.512Z,94.60
2023-02-08T03:19:44.879Z,94.70
2023-02-08T03:22:32.303Z,94.70
2023-02-08T03:25:34.186Z,94.50
2023-02-08T03:31:16.454Z,94.60
2023-02-08T03:34:33.927Z,94.80
2023-02-08T03:37:10.044Z,94.90
2023-02-08T03:39:43.265Z,95.10
2023-02-08T03:42:21.061Z,95.10
2023-02-08T03:45:00.669Z,95.50
2023-02-08T03:47:38.155Z,95.90
2023-02-08T03:50:17.124Z,95.20
2023-02-08T03:52:53.537Z,95.00
2023-02-08T03:55:28.022Z,94.90
2023-02-08T03:58:10.445Z,94.70
2023-02-08T04:01:05.906Z,94.60
2023-02-08T04:03:38.855Z,94.60
2023-02-08T04:06:09.662Z,94.70
2023-02-08T04:09:00.511Z,94.60
2023-02-08T04:11:31.466Z,94.40
2023-02-08T04:14:02.395Z,94.50
2023-02-08T04:16:33.423Z,95.20
2023-02-08T04:19:07.036Z,94.70
2023-02-08T04:21:39.580Z,95.40
2023-02-08T04:24:10.727Z,95.20
2023-02-08T04:26:41.787Z,94.90
2023-02-08T04:29:12.982Z,95.00
2023-02-08T04:31:45.481Z,94.80
2023-02-08T04:34:20.450Z,94.80
2023-02-08T04:36:51.737Z,94.50
2023-02-08T04:39:22.910Z,94.60
2023-02-08T04:41:54.121Z,94.30
2023-02-08T04:44:25.564Z,94.30
2023-02-08T04:47:16.440Z,94.40
2023-02-08T04:50:07.918Z,94.20
2023-02-08T04:52:39.563Z,94.20
2023-02-08T04:57:55.368Z,94.50
2023-02-08T05:00:26.392Z,94.40
2023-02-08T05:02:58.654Z,94.40
2023-02-08T05:05:30.152Z,94.30
2023-02-08T05:08:02.091Z,94.60
2023-02-08T05:10:33.414Z,94.40
2023-02-08T05:13:04.735Z,94.90
2023-02-08T05:15:38.042Z,94.40
2023-02-08T05:18:09.331Z,94.20
2023-02-08T05:20:47.277Z,94.20
2023-02-08T05:23:18.455Z,94.30
2023-02-08T05:25:49.594Z,94.70
2023-02-08T05:28:21.326Z,94.50
2023-02-08T05:30:52.818Z,94.70
2023-02-08T05:33:24.231Z,94.40
2023-02-08T05:35:55.524Z,94.70
2023-02-08T05:38:26.837Z,94.50
2023-02-08T05:40:57.909Z,94.90
2023-02-08T05:43:29.059Z,94.50
2023-02-08T05:46:25.143Z,95.60
2023-02-08T05:49:18.566Z,95.10
2023-02-08T05:51:51.704Z,94.70
2023-02-08T05:54:22.855Z,94.60
2023-02-08T05:56:55.979Z,95.90
2023-02-08T05:59:27.594Z,95.20
2023-02-08T06:04:44.648Z,95.50
2023-02-08T06:07:38.445Z,95.00
2023-02-08T06:10:13.294Z,94.90
2023-02-08T06:12:45.312Z,94.70
2023-02-08T06:15:16.755Z,95.40
2023-02-08T06:17:47.802Z,95.00
2023-02-08T06:20:19.069Z,94.70
2023-02-08T06:22:50.232Z,95.20
2023-02-08T06:25:21.368Z,94.60
2023-02-08T06:27:52.688Z,94.70
2023-02-08T06:30:24.052Z,96.00
2023-02-08T06:32:55.214Z,95.40
2023-02-08T06:35:26.394Z,95.40
2023-02-08T06:37:57.554Z,94.90
2023-02-08T06:40:28.946Z,95.30
2023-02-08T06:43:00.102Z,95.40
2023-02-08T06:45:31.219Z,95.20
2023-02-08T06:48:10.111Z,94.90
2023-02-08T06:53:25.281Z,94.80
2023-02-08T06:56:04.862Z,94.60
2023-02-08T07:01:29.529Z,94.70
2023-02-08T07:04:00.535Z,95.00
2023-02-08T07:06:31.715Z,94.60
2023-02-08T07:09:04.133Z,94.90
2023-02-08T07:11:35.248Z,94.60
2023-02-08T07:14:07.016Z,94.60
2023-02-08T07:16:38.305Z,94.60
2023-02-08T07:19:09.842Z,95.10
2023-02-08T07:21:41.115Z,94.70
2023-02-08T07:24:12.339Z,94.80
2023-02-08T07:27:04.569Z,95.10
2023-02-08T07:30:08.204Z,94.40
2023-02-08T07:32:39.323Z,94.50
2023-02-08T07:35:31.920Z,94.30
2023-02-08T07:38:03.214Z,94.60
2023-02-08T07:40:34.464Z,94.30
2023-02-08T07:43:05.660Z,94.20
2023-02-08T07:45:49.553Z,94.70
2023-02-08T07:48:20.584Z,94.20
2023-02-08T07:50:51.927Z,94.10
2023-02-08T07:53:23.155Z,94.00
2023-02-08T07:56:15.522Z,94.10
2023-02-08T07:58:47.193Z,94.10
2023-02-08T08:01:22.216Z,94.70
2023-02-08T08:03:54.780Z,94.30
2023-02-08T08:06:26.359Z,94.20
2023-02-08T08:08:57.654Z,93.90
2023-02-08T08:14:32.397Z,94.10
2023-02-08T08:17:05.452Z,94.10
2023-02-08T08:19:36.717Z,94.10
2023-02-08T08:22:07.873Z,94.10
2023-02-08T08:24:39.362Z,94.40
2023-02-08T08:27:13.157Z,94.30
2023-02-08T08:29:44.336Z,94.40
2023-02-08T08:32:16.385Z,94.00
2023-02-08T08:34:47.719Z,93.80
2023-02-08T08:37:37.663Z,94.50
2023-02-08T08:40:30.114Z,94.00
2023-02-08T08:43:01.465Z,93.90
2023-02-08T08:45:35.135Z,94.50
2023-02-08T08:48:29.137Z,93.80
2023-02-08T08:51:20.022Z,93.80
2023-02-08T08:53:51.132Z,93.70
2023-02-08T08:56:22.419Z,93.90
2023-02-08T08:58:53.725Z,94.10
2023-02-08T09:01:25.083Z,94.20
2023-02-08T09:04:16.426Z,94.00
2023-02-08T09:07:11.665Z,94.40
2023-02-08T09:09:44.216Z,93.80
2023-02-08T09:12:16.594Z,94.10
2023-02-08T09:15:10.520Z,93.90
2023-02-08T09:17:47.206Z,93.80
2023-02-08T09:20:18.553Z,94.30
2023-02-08T09:22:50.088Z,94.20
2023-02-08T09:25:21.306Z,94.00
2023-02-08T09:27:52.592Z,93.80
2023-02-08T09:30:25.551Z,94.00
2023-02-08T09:32:56.564Z,94.10
2023-02-08T09:35:49.735Z,93.80
2023-02-08T09:38:26.406Z,93.80
2023-02-08T09:41:03.450Z,94.50
2023-02-08T09:43:38.313Z,94.20
2023-02-08T09:46:24.766Z,94.50
2023-02-08T09:48:59.632Z,94.20
2023-02-08T09:51:47.210Z,94.00
2023-02-08T09:54:42.874Z,94.60
2023-02-08T09:57:46.076Z,94.20
2023-02-08T10:00:27.793Z,94.00
2023-02-08T10:03:05.630Z,94.00
2023-02-08T10:05:41.225Z,93.90
2023-02-08T10:08:15.013Z,94.10
2023-02-08T10:11:14.893Z,93.80
2023-02-08T10:14:16.100Z,93.80
2023-02-08T10:17:26.053Z,93.70
2023-02-08T10:20:07.297Z,94.20
2023-02-08T10:23:10.375Z,93.80
2023-02-08T10:25:57.909Z,93.80
2023-02-08T10:28:51.354Z,93.80
2023-02-08T10:31:40.572Z,93.80
2023-02-08T10:35:01.156Z,93.70
2023-02-08T10:37:38.220Z,93.90
2023-02-08T10:40:40.110Z,93.70
2023-02-08T10:43:39.526Z,93.60
2023-02-08T10:46:54.681Z,93.80
2023-02-08T10:49:46.928Z,93.80
2023-02-08T10:52:18.214Z,93.90
2023-02-08T10:54:49.106Z,93.80
2023-02-08T10:57:37.033Z,93.90
2023-02-08T11:00:13.608Z,93.70
2023-02-08T11:02:45.668Z,93.80
2023-02-08T11:05:34.764Z,93.70
2023-02-08T11:08:48.293Z,93.90
2023-02-08T11:11:19.717Z,94.00
2023-02-08T11:14:17.561Z,93.70
2023-02-08T11:17:33.329Z,93.70
2023-02-08T11:20:04.651Z,93.60
2023-02-08T11:22:36.469Z,93.80
2023-02-08T11:25:30.279Z,93.90
2023-02-08T11:28:02.840Z,93.80
2023-02-08T11:30:35.105Z,93.90
2023-02-08T11:33:24.393Z,93.90
2023-02-08T11:36:14.799Z,93.90
2023-02-08T11:39:07.328Z,93.80
2023-02-08T11:41:38.840Z,93.80
2023-02-08T11:44:24.766Z,93.70
2023-02-08T11:47:24.858Z,93.70
2023-02-08T11:50:18.815Z,93.60
2023-02-08T11:53:02.628Z,93.70
2023-02-08T11:55:38.424Z,93.60
2023-02-08T11:58:16.873Z,93.60
2023-02-08T12:01:08.164Z,93.60
2023-02-08T12:03:42.091Z,93.60
2023-02-08T12:06:54.198Z,93.60
2023-02-08T12:10:01.746Z,93.70
2023-02-08T12:12:58.404Z,93.60
2023-02-08T12:15:58.919Z,93.60
2023-02-08T12:19:24.273Z,93.60
2023-02-08T12:22:08.647Z,93.50
2023-02-08T12:24:50.788Z,93.60
2023-02-08T12:27:45.286Z,93.50
2023-02-08T12:30:15.985Z,93.40
2023-02-08T12:36:10.741Z,93.40
2023-02-08T12:39:45.099Z,93.50
2023-02-08T12:42:53.084Z,93.50
2023-02-08T12:45:46.008Z,93.60
2023-02-08T12:48:20.359Z,93.50
2023-02-08T12:51:19.241Z,93.40
2023-02-08T12:53:59.162Z,93.40
2023-02-08T12:56:37.658Z,93.40
2023-02-08T12:59:35.371Z,93.40
2023-02-08T13:03:05.853Z,93.40
2023-02-08T13:05:50.751Z,93.40
2023-02-08T13:12:01.948Z,93.40
2023-02-08T13:14:44.813Z,93.40
2023-02-08T13:17:23.181Z,93.40
2023-02-08T13:20:31.418Z,93.50
2023-02-08T13:23:30.703Z,93.40
2023-02-08T13:26:35.447Z,93.30
2023-02-08T13:29:08.016Z,93.40
2023-02-08T13:31:48.465Z,93.60
2023-02-08T13:34:22.313Z,93.40
2023-02-08T13:37:01.035Z,93.40
2023-02-08T13:39:44.129Z,93.40
2023-02-08T13:42:46.975Z,93.30
2023-02-08T13:45:33.353Z,93.40
2023-02-08T13:48:16.600Z,93.40
2023-02-08T13:50:57.092Z,93.40
2023-02-08T13:53:43.588Z,93.40
2023-02-08T13:56:15.856Z,93.30
2023-02-08T13:59:20.028Z,93.40
2023-02-08T14:02:23.790Z,94.00
2023-02-08T14:08:25.957Z,93.40
2023-02-08T14:11:27.848Z,93.30
2023-02-08T14:14:20.271Z,93.40
2023-02-08T14:17:31.940Z,93.40
2023-02-08T14:20:07.691Z,93.40
2023-02-08T14:22:53.878Z,93.50
2023-02-08T14:25:40.768Z,93.60
2023-02-08T14:28:29.108Z,93.60
2023-02-08T14:31:03.323Z,93.60
2023-02-08T14:33:53.622Z,93.60
2023-02-08T14:37:00.431Z,93.70
2023-02-08T14:39:36.815Z,93.60
2023-02-08T14:45:58.218Z,93.50
2023-02-08T14:51:50.349Z,93.40
2023-02-08T14:54:42.006Z,93.40
2023-02-08T14:57:42.725Z,93.40
2023-02-08T15:00:31.595Z,93.40
2023-02-08T15:03:07.372Z,93.40
2023-02-08T15:05:48.741Z,93.40
2023-02-08T15:08:40.811Z,93.40
2023-02-08T15:11:34.384Z,93.30
2023-02-08T15:14:12.085Z,93.30
2023-02-08T15:16:48.498Z,93.20
2023-02-08T15:19:43.715Z,93.20
2023-02-08T15:22:34.066Z,93.30
2023-02-08T15:25:44.315Z,93.30
2023-02-08T15:28:41.331Z,93.20
2023-02-08T15:31:49.655Z,93.20
2023-02-08T15:34:47.273Z,93.20
2023-02-08T15:37:21.704Z,93.20
2023-02-08T15:39:59.299Z,93.50
2023-02-08T15:42:50.222Z,93.30
2023-02-08T15:45:33.054Z,93.20
2023-02-08T15:48:04.865Z,93.30
2023-02-08T15:50:37.621Z,93.30
2023-02-08T15:53:15.360Z,93.20
2023-02-08T15:55:57.431Z,93.20
2023-02-08T15:58:41.308Z,93.20
2023-02-08T16:01:21.814Z,93.20
2023-02-08T16:04:22.298Z,93.10
2023-02-08T16:06:57.405Z,93.10
2023-02-08T16:09:32.969Z,93.20
2023-02-08T16:12:04.407Z,93.20
2023-02-08T16:14:51.838Z,93.00
2023-02-08T16:17:47.910Z,93.20
2023-02-08T16:20:38.068Z,93.20
2023-02-08T16:23:28.537Z,93.10
2023-02-08T16:26:21.478Z,93.10
2023-02-08T16:29:01.478Z,93.10
2023-02-08T16:31:55.666Z,93.00
2023-02-08T16:34:27.101Z,93.10
2023-02-08T16:36:58.508Z,93.00
2023-02-08T16:42:47.295Z,93.20
2023-02-08T16:45:21.818Z,93.20
2023-02-08T16:48:13.438Z,93.20
2023-02-08T16:50:48.680Z,93.30
2023-02-08T16:53:19.776Z,93.20
2023-02-08T16:55:52.108Z,93.20
2023-02-08T16:58:24.848Z,93.10
2023-02-08T17:00:56.573Z,93.10
2023-02-08T17:03:31.044Z,93.40
2023-02-08T17:06:03.848Z,93.20
2023-02-08T17:08:54.485Z,93.10
2023-02-08T17:11:25.743Z,93.10
2023-02-08T17:13:57.096Z,93.10
2023-02-08T17:16:31.109Z,93.00
2023-02-08T17:19:02.366Z,93.10
2023-02-08T17:21:33.551Z,93.10
2023-02-08T17:24:04.914Z,93.10
2023-02-08T17:26:41.594Z,93.00
2023-02-08T17:29:15.271Z,93.00
2023-02-08T17:31:47.292Z,93.00
2023-02-08T17:34:38.378Z,93.00
2023-02-08T17:37:10.362Z,93.00
2023-02-08T17:39:43.691Z,93.00
2023-02-08T17:42:14.722Z,93.00
2023-02-08T17:44:51.725Z,93.00
2023-02-08T17:47:22.753Z,93.10
2023-02-08T17:49:53.948Z,93.10
2023-02-08T17:52:25.075Z,93.30
2023-02-08T17:54:56.265Z,93.20
2023-02-08T17:57:40.135Z,93.30
2023-02-08T18:00:18.414Z,93.70
2023-02-08T18:02:53.593Z,93.30
2023-02-08T18:05:28.098Z,93.40
2023-02-08T18:07:59.720Z,93.20
2023-02-08T18:10:30.812Z,93.20
2023-02-08T18:13:01.664Z,93.20
2023-02-08T18:15:32.706Z,93.10
2023-02-08T18:18:05.216Z,93.10
2023-02-08T18:20:36.128Z,93.10
2023-02-08T18:23:26.921Z,93.20
2023-02-08T18:26:07.477Z,93.10
2023-02-08T18:28:38.887Z,93.00
2023-02-08T18:31:16.109Z,93.10
2023-02-08T18:33:47.524Z,93.30
2023-02-08T18:36:19.369Z,93.20
2023-02-08T18:38:52.839Z,93.10
2023-02-08T18:41:27.106Z,93.20
2023-02-08T18:44:00.190Z,93.10
2023-02-08T18:46:40.110Z,93.10
2023-02-08T18:49:19.653Z,93.00
2023-02-08T18:51:50.853Z,93.00
2023-02-08T18:54:47.331Z,93.00
2023-02-08T18:57:18.546Z,93.10
2023-02-08T18:59:55.697Z,93.00
2023-02-08T19:02:29.651Z,93.20
2023-02-08T19:05:00.320Z,93.00
2023-02-08T19:07:31.466Z,93.20
2023-02-08T19:10:02.860Z,93.20
2023-02-08T19:12:34.060Z,93.30
2023-02-08T19:15:05.171Z,93.30
2023-02-08T19:17:36.099Z,93.50
2023-02-08T19:20:07.469Z,93.30
2023-02-08T19:22:38.453Z,93.30
2023-02-08T19:25:09.742Z,93.40
2023-02-08T19:27:40.595Z,93.20
2023-02-08T19:30:18.495Z,93.20
2023-02-08T19:32:49.392Z,93.20
2023-02-08T19:35:21.054Z,93.20
2023-02-08T19:37:54.221Z,93.30
2023-02-08T19:40:30.308Z,93.10
2023-02-08T19:43:06.419Z,93.20
2023-02-08T19:45:37.665Z,93.20
2023-02-08T19:48:11.653Z,93.30
2023-02-08T19:50:44.251Z,93.20
2023-02-08T19:53:15.252Z,93.20
2023-02-08T19:55:46.200Z,93.10
2023-02-08T19:58:17.713Z,93.20
2023-02-08T20:00:48.916Z,93.10
2023-02-08T20:03:22.159Z,93.10
2023-02-08T20:05:59.263Z,93.10
2023-02-08T20:08:33.077Z,93.60
2023-02-08T20:11:03.815Z,93.10
2023-02-08T20:13:34.618Z,93.10
2023-02-08T20:16:05.428Z,93.10
2023-02-08T20:18:36.105Z,93.10
2023-02-08T20:23:52.940Z,93.30
2023-02-08T20:26:31.804Z,93.20
2023-02-08T20:29:02.686Z,93.30
2023-02-08T20:31:39.398Z,93.10
2023-02-08T20:34:12.786Z,93.10
2023-02-08T20:36:57.384Z,93.10
2023-02-08T20:39:33.276Z,93.00
2023-02-08T20:42:23.881Z,93.10
2023-02-08T20:45:06.647Z,93.00
2023-02-08T20:47:59.978Z,92.90
2023-02-08T20:50:33.336Z,93.00
2023-02-08T20:53:04.074Z,93.10
2023-02-08T20:55:34.838Z,93.10
2023-02-08T21:00:53.561Z,93.20
2023-02-08T21:03:25.037Z,93.10
2023-02-08T21:05:59.073Z,93.00
2023-02-08T21:08:37.892Z,93.60
2023-02-08T21:11:09.452Z,93.10
2023-02-08T21:13:41.206Z,93.10
2023-02-08T21:16:12.878Z,93.10
2023-02-08T21:18:53.530Z,93.10
2023-02-08T21:21:34.929Z,93.10
2023-02-08T21:24:06.289Z,93.00
2023-02-08T21:26:42.356Z,93.40
2023-02-08T21:29:14.071Z,93.30
2023-02-08T21:31:45.126Z,93.30
2023-02-08T21:34:19.585Z,93.30
2023-02-08T21:36:53.738Z,93.70
2023-02-08T21:39:30.527Z,93.40
2023-02-08T21:42:01.556Z,93.60
2023-02-08T21:44:36.194Z,93.30
2023-02-08T21:47:08.408Z,93.20
2023-02-08T21:49:57.487Z,93.20
2023-02-08T21:52:46.774Z,93.20
2023-02-08T21:55:17.946Z,93.10
2023-02-08T21:57:49.361Z,93.40
2023-02-08T22:00:23.704Z,93.10
2023-02-08T22:02:55.040Z,93.20
2023-02-08T22:06:06.268Z,94.90
2023-02-08T22:08:59.795Z,94.70
2023-02-08T22:11:30.749Z,96.30
2023-02-08T22:14:24.512Z,96.40
2023-02-08T22:16:55.569Z,95.90
2023-02-08T22:19:26.531Z,94.80
2023-02-08T22:21:57.443Z,96.40
2023-02-08T22:24:28.490Z,96.70
2023-02-08T22:27:19.495Z,96.60
2023-02-08T22:29:50.686Z,97.40
2023-02-08T22:32:22.051Z,95.40
2023-02-08T22:34:52.961Z,94.80
2023-02-08T22:37:27.563Z,95.40
2023-02-08T22:39:58.786Z,94.80
2023-02-08T22:42:30.960Z,95.00
2023-02-08T22:45:02.793Z,94.60
2023-02-08T22:47:37.213Z,94.50
2023-02-08T22:50:09.804Z,94.30
2023-02-08T22:52:40.684Z,94.30
2023-02-08T22:55:11.524Z,94.10
2023-02-08T22:57:44.650Z,94.20
2023-02-08T23:00:17.214Z,94.00
2023-02-08T23:02:47.947Z,93.90
2023-02-08T23:05:20.201Z,93.90
2023-02-08T23:07:51.186Z,94.10
2023-02-08T23:10:24.982Z,95.70
2023-02-08T23:12:55.979Z,94.40
2023-02-08T23:15:26.644Z,94.20
2023-02-08T23:18:26.743Z,94.10
2023-02-08T23:21:01.794Z,94.10
2023-02-08T23:23:32.791Z,95.80
2023-02-08T23:26:07.422Z,94.00
2023-02-08T23:28:38.799Z,94.00
2023-02-08T23:31:14.162Z,93.90
2023-02-08T23:33:45.285Z,94.10
2023-02-08T23:36:18.580Z,93.80
2023-02-08T23:39:17.700Z,93.70
2023-02-08T23:41:50.579Z,93.70
2023-02-08T23:44:24.899Z,93.80
2023-02-08T23:46:55.600Z,93.60
2023-02-08T23:49:26.327Z,93.60
2023-02-08T23:54:43.772Z,94.20
2023-02-08T23:57:18.186Z,94.40
2023-02-08T23:59:49.357Z,94.40
